Time;durP1;ratioP1;P1;durP2;ratioP2;P2;SDS_P1;SDS_P2;PMS_P1;PMS_P2;Temp;Humidity;BMP_temperature;BMP_pressure;BME280_temperature;BME280_humidity;BME280_pressure;Samples;Min_cycle;Max_cycle;Signal;HPM_P1;HPM_P2
2023/03/15 00:01:35;;;;;;;;;6.25;4.75;;;;;9.30;55.01;101184.97;5016323;28;45453;-69
2023/03/15 00:04:00;;;;;;;;;9.75;5.25;;;;;9.25;54.43;101183.91;5015546;28;46977;-69
2023/03/15 00:06:25;;;;;;;;;6.75;6.75;;;;;9.23;55.49;101181.16;5015432;28;45299;-68
2023/03/15 00:08:51;;;;;;;;;7.00;5.50;;;;;9.12;55.30;101161.19;5015810;28;58207;-70
2023/03/15 00:11:17;;;;;;;;;9.50;5.50;;;;;9.25;55.42;101163.47;5015734;28;45451;-67
2023/03/15 00:13:44;;;;;;;;;5.00;5.00;;;;;9.01;55.17;101111.03;5015454;28;46514;-71
2023/03/15 00:16:10;;;;;;;;;7.00;6.50;;;;;9.33;55.09;101153.09;5020453;28;45365;-69
2023/03/15 00:18:35;;;;;;;;;4.00;4.00;;;;;9.26;54.86;101146.63;5021511;28;45587;-70
2023/03/15 00:21:00;;;;;;;;;6.25;4.75;;;;;9.44;54.94;101172.16;5017514;28;46129;-68
2023/03/15 00:23:26;;;;;;;;;7.00;6.00;;;;;9.17;54.74;101125.88;5027444;28;45525;-69
2023/03/15 00:25:51;;;;;;;;;8.25;4.00;;;;;9.19;54.51;101132.16;5021289;28;45586;-68
2023/03/15 00:28:18;;;;;;;;;5.00;5.00;;;;;9.31;55.40;101179.72;5030276;28;45646;-69
2023/03/15 00:30:43;;;;;;;;;4.75;4.75;;;;;9.33;55.41;101177.09;5016284;28;45436;-69
2023/03/15 00:33:12;;;;;;;;;6.75;4.00;;;;;9.23;55.44;101167.84;5013262;28;45907;-69
2023/03/15 00:35:40;;;;;;;;;11.00;5.00;;;;;9.25;55.84;101171.47;5013703;28;45462;-70
2023/03/15 00:38:06;;;;;;;;;4.00;4.00;;;;;9.20;55.89;101151.72;5014854;28;45419;-69
2023/03/15 00:40:31;;;;;;;;;4.00;3.50;;;;;9.36;55.65;101174.56;5020298;28;45587;-68
2023/03/15 00:42:57;;;;;;;;;6.25;4.50;;;;;9.35;55.57;101184.28;5014948;28;46015;-68
2023/03/15 00:45:22;;;;;;;;;5.50;4.00;;;;;9.38;55.76;101178.19;5029229;28;45328;-69
2023/03/15 00:47:49;;;;;;;;;5.25;3.75;;;;;9.37;55.04;101181.69;5038062;28;45111;-68
2023/03/15 00:50:15;;;;;;;;;5.00;3.75;;;;;9.26;55.11;101178.63;5037693;28;45055;-69
2023/03/15 00:52:41;;;;;;;;;5.00;4.75;;;;;9.21;55.44;101175.78;5031439;28;45255;-68
2023/03/15 00:55:12;;;;;;;;;4.75;3.00;;;;;9.20;55.29;101179.28;5027156;28;45435;-69
2023/03/15 00:57:38;;;;;;;;;5.75;5.00;;;;;9.18;55.90;101183.66;5040308;28;45480;-68
2023/03/15 01:00:05;;;;;;;;;3.50;3.50;;;;;9.21;56.38;101191.78;5033093;28;45365;-69
2023/03/15 01:02:30;;;;;;;;;5.00;5.00;;;;;9.20;55.99;101191.72;5013912;28;46250;-67
2023/03/15 01:04:56;;;;;;;;;4.50;3.50;;;;;9.15;55.37;101196.84;5021897;28;45686;-67
2023/03/15 01:07:21;;;;;;;;;4.50;4.50;;;;;9.13;56.37;101192.34;5015129;28;45515;-70
2023/03/15 01:09:47;;;;;;;;;3.50;3.50;;;;;9.13;55.53;101195.91;5024292;28;45420;-67
2023/03/15 01:12:12;;;;;;;;;6.75;3.50;;;;;9.02;55.35;101192.81;5017066;28;46052;-71
2023/03/15 01:14:39;;;;;;;;;7.75;5.75;;;;;8.93;56.09;101181.78;5022225;28;45387;-68
2023/03/15 01:17:04;;;;;;;;;4.25;4.00;;;;;8.97;55.85;101202.38;5016619;28;45555;-67
2023/03/15 01:19:29;;;;;;;;;6.50;4.75;;;;;9.03;56.12;101210.63;5016743;28;45400;-68
2023/03/15 01:21:55;;;;;;;;;8.75;6.25;;;;;8.98;56.65;101204.19;5020552;28;45433;-68
2023/03/15 01:24:20;;;;;;;;;7.50;7.50;;;;;9.02;56.16;101211.47;5015820;28;46132;-70
2023/03/15 01:26:45;;;;;;;;;4.50;4.50;;;;;9.00;56.13;101214.91;5024957;28;46028;-68
2023/03/15 01:29:12;;;;;;;;;5.00;4.00;;;;;8.94;55.53;101204.00;5022168;28;45492;-67
2023/03/15 01:31:38;;;;;;;;;7.25;4.00;;;;;8.90;56.74;101205.63;5023469;28;46496;-68
2023/03/15 01:34:04;;;;;;;;;5.00;3.75;;;;;8.79;56.63;101186.56;5005223;28;45511;-68
2023/03/15 01:36:29;;;;;;;;;6.75;5.00;;;;;8.83;56.50;101190.25;5015462;28;45364;-67
2023/03/15 01:38:55;;;;;;;;;6.75;5.50;;;;;8.82;56.28;101186.66;5014653;28;45495;-70
2023/03/15 01:41:22;;;;;;;;;5.50;4.00;;;;;8.90;56.54;101218.06;5016105;28;45543;-67
2023/03/15 01:43:47;;;;;;;;;4.50;4.00;;;;;8.83;56.48;101206.25;5020475;28;45625;-68
2023/03/15 01:46:18;;;;;;;;;4.50;4.50;;;;;8.90;55.72;101220.72;5019441;28;45648;-68
2023/03/15 01:49:08;;;;;;;;;5.75;4.00;;;;;8.90;55.68;101221.63;5023341;28;45745;-69
2023/03/15 01:51:49;;;;;;;;;7.25;4.00;;;;;8.90;56.53;101215.41;5022081;28;45387;-68
2023/03/15 01:54:18;;;;;;;;;4.00;4.00;;;;;8.93;56.38;101226.19;5022856;28;45380;-70
2023/03/15 01:57:04;;;;;;;;;5.25;5.25;;;;;8.94;56.48;101222.66;5027903;28;45586;-68
2023/03/15 01:59:35;;;;;;;;;5.00;5.00;;;;;8.89;56.21;101221.56;5020938;28;45454;-69
2023/03/15 02:02:01;;;;;;;;;6.75;5.25;;;;;8.87;56.10;101215.28;5018099;28;46779;-69
2023/03/15 02:04:35;;;;;;;;;5.75;4.75;;;;;8.90;56.81;101223.41;5023367;28;45812;-68
2023/03/15 02:07:04;;;;;;;;;6.75;4.00;;;;;8.81;56.26;101222.16;5015281;28;45593;-69
2023/03/15 02:09:57;;;;;;;;;4.00;4.00;;;;;8.80;56.10;101227.44;5025394;28;45343;-69
2023/03/15 02:12:22;;;;;;;;;4.00;4.00;;;;;8.82;56.04;101231.06;5022485;28;45613;-67
2023/03/15 02:14:50;;;;;;;;;5.00;4.50;;;;;8.71;56.57;101208.41;5020243;28;45387;-69
2023/03/15 02:17:18;;;;;;;;;5.75;4.00;;;;;8.77;56.54;101221.97;5027780;28;45718;-70
2023/03/15 02:19:56;;;;;;;;;6.00;5.50;;;;;8.70;55.89;101212.81;5022509;28;45591;-70
2023/03/15 02:22:43;;;;;;;;;7.50;5.25;;;;;8.66;55.84;101206.47;5022493;28;46321;-67
2023/03/15 02:25:19;;;;;;;;;3.75;3.75;;;;;8.70;55.98;101217.25;5020869;28;45727;-69
2023/03/15 02:27:45;;;;;;;;;5.00;4.00;;;;;8.65;56.08;101217.94;5023294;28;45511;-70
2023/03/15 02:30:10;;;;;;;;;9.00;6.00;;;;;8.59;56.36;101207.03;5016203;28;45509;-69
2023/03/15 02:32:36;;;;;;;;;12.00;4.00;;;;;8.60;56.17;101216.84;5018892;28;46331;-69
2023/03/15 02:35:01;;;;;;;;;8.25;5.00;;;;;8.59;56.79;101220.34;5026275;28;45446;-69
2023/03/15 02:37:27;;;;;;;;;4.00;3.00;;;;;8.57;56.16;101219.38;5003450;28;45774;-69
2023/03/15 02:39:52;;;;;;;;;4.50;4.00;;;;;8.59;56.50;101222.13;5031895;28;45733;-69
2023/03/15 02:42:18;;;;;;;;;9.00;5.00;;;;;8.51;56.24;101219.13;5034891;28;45569;-69
2023/03/15 02:44:45;;;;;;;;;6.25;5.00;;;;;8.52;55.77;101223.63;5036832;28;45167;-69
2023/03/15 02:47:21;;;;;;;;;4.50;3.50;;;;;8.42;56.67;101216.94;5019966;28;45403;-70
2023/03/15 02:49:52;;;;;;;;;5.75;5.25;;;;;8.41;56.34;101211.56;5018922;28;46368;-68
2023/03/15 02:52:18;;;;;;;;;6.75;3.25;;;;;8.37;55.74;101210.53;5020085;28;46486;-69
2023/03/15 02:54:43;;;;;;;;;5.50;4.25;;;;;8.33;56.82;101205.91;5021236;28;45305;-68
2023/03/15 02:57:10;;;;;;;;;6.00;4.00;;;;;8.33;56.71;101211.22;5016902;28;45533;-69
2023/03/15 02:59:36;;;;;;;;;3.75;3.50;;;;;8.37;55.86;101213.19;5015160;28;45463;-69
2023/03/15 03:02:02;;;;;;;;;5.25;3.25;;;;;8.32;56.44;101205.88;5018661;28;45773;-69
2023/03/15 03:04:27;;;;;;;;;4.00;4.00;;;;;8.33;55.68;101216.53;5024897;28;45622;-69
2023/03/15 03:06:52;;;;;;;;;8.75;5.50;;;;;8.37;56.52;101222.94;5015389;28;50289;-70
2023/03/15 03:09:18;;;;;;;;;5.25;4.00;;;;;8.35;56.03;101229.91;5028350;28;45486;-69
2023/03/15 03:11:44;;;;;;;;;6.00;5.00;;;;;8.37;56.74;101229.16;5016254;28;45549;-69
2023/03/15 03:14:12;;;;;;;;;5.75;4.75;;;;;8.34;56.43;101222.81;5016519;28;45395;-71
2023/03/15 03:16:38;;;;;;;;;5.00;4.00;;;;;8.36;56.15;101237.06;5020534;28;45466;-68
2023/03/15 03:19:03;;;;;;;;;3.75;3.75;;;;;8.30;56.31;101233.31;5017752;28;45675;-68
2023/03/15 03:21:29;;;;;;;;;3.00;3.00;;;;;8.34;56.76;101249.44;5021544;28;45498;-69
2023/03/15 03:23:55;;;;;;;;;3.50;3.00;;;;;8.16;56.24;101226.47;5022251;28;46102;-69
2023/03/15 03:26:20;;;;;;;;;3.00;1.00;;;;;8.28;56.77;101243.00;5016797;28;46552;-68
2023/03/15 03:28:47;;;;;;;;;4.00;3.00;;;;;8.29;56.12;101230.59;5016668;28;45491;-68
2023/03/15 03:31:21;;;;;;;;;3.00;3.00;;;;;8.36;55.87;101240.63;5020536;28;46438;-69
2023/03/15 03:33:47;;;;;;;;;3.75;3.00;;;;;8.32;56.61;101236.03;5019337;28;45333;-69
2023/03/15 03:36:12;;;;;;;;;3.75;3.25;;;;;8.33;56.40;101236.94;5023017;28;45291;-69
2023/03/15 03:38:43;;;;;;;;;4.75;3.00;;;;;8.34;56.50;101238.78;5025425;28;45421;-68
2023/03/15 03:41:09;;;;;;;;;4.25;3.00;;;;;8.30;56.88;101240.41;5026597;28;45675;-69
2023/03/15 03:43:36;;;;;;;;;2.25;2.25;;;;;8.23;56.38;101239.22;5013684;28;45347;-68
2023/03/15 03:46:02;;;;;;;;;4.75;2.50;;;;;8.11;56.25;101225.38;5016382;28;45389;-67
2023/03/15 03:48:27;;;;;;;;;9.50;5.00;;;;;8.10;56.85;101228.84;5020307;28;45339;-70
2023/03/15 03:50:52;;;;;;;;;2.00;2.00;;;;;8.21;57.56;101242.66;5020473;28;46385;-67
2023/03/15 03:53:18;;;;;;;;;2.00;2.00;;;;;8.20;56.48;101241.75;5016108;28;45635;-69
2023/03/15 03:55:45;;;;;;;;;5.75;3.00;;;;;8.20;57.64;101239.09;5021761;28;45375;-68
2023/03/15 03:58:10;;;;;;;;;6.25;3.25;;;;;7.63;57.56;101148.78;5012087;28;45376;-68
2023/03/15 04:00:36;;;;;;;;;4.00;3.25;;;;;8.17;57.72;101254.91;5012507;28;45974;-67
2023/03/15 04:03:01;;;;;;;;;2.75;1.75;;;;;8.17;56.80;101248.69;5013724;28;46170;-67
2023/03/15 04:05:27;;;;;;;;;1.75;1.75;;;;;8.18;57.86;101258.47;5018231;28;45360;-68
2023/03/15 04:07:53;;;;;;;;;4.00;3.50;;;;;8.21;57.81;101262.19;5017382;28;45547;-69
2023/03/15 04:10:25;;;;;;;;;4.50;3.50;;;;;8.26;57.47;101262.38;5016718;28;46550;-69
2023/03/15 04:12:52;;;;;;;;;3.00;3.00;;;;;8.30;57.80;101267.03;5027474;28;45288;-68
2023/03/15 04:15:17;;;;;;;;;3.75;3.75;;;;;8.33;57.87;101261.81;5034134;28;45208;-70
2023/03/15 04:17:43;;;;;;;;;2.25;2.00;;;;;8.36;56.74;101255.72;5027791;28;45475;-69
2023/03/15 04:20:10;;;;;;;;;3.75;2.25;;;;;8.37;57.49;101255.78;5027798;28;45204;-67
2023/03/15 04:22:36;;;;;;;;;4.00;2.00;;;;;8.28;57.38;101236.75;5030380;28;45191;-69
2023/03/15 04:25:02;;;;;;;;;3.00;3.00;;;;;8.38;57.74;101257.63;5014734;28;45415;-70
2023/03/15 04:27:28;;;;;;;;;2.75;2.75;;;;;8.38;57.28;101254.03;5013290;28;45589;-68
2023/03/15 04:29:54;;;;;;;;;9.00;3.00;;;;;8.35;57.09;101243.22;5011136;28;45514;-68
2023/03/15 04:32:19;;;;;;;;;3.00;1.75;;;;;8.40;57.15;101250.59;5010319;28;45517;-68
2023/03/15 04:34:44;;;;;;;;;4.50;2.25;;;;;8.34;57.47;101236.13;5015711;28;45411;-68
2023/03/15 04:37:10;;;;;;;;;4.75;3.50;;;;;8.35;57.00;101237.91;5016870;28;45809;-68
2023/03/15 04:39:35;;;;;;;;;3.75;3.75;;;;;8.37;56.94;101242.47;5011270;28;46232;-67
2023/03/15 04:42:00;;;;;;;;;3.00;1.75;;;;;8.38;57.06;101254.03;5011759;28;56413;-68
2023/03/15 04:44:26;;;;;;;;;5.25;5.25;;;;;8.39;57.88;101254.09;5020882;28;45380;-68
2023/03/15 04:46:53;;;;;;;;;5.25;4.00;;;;;8.39;57.68;101253.19;5018769;28;45531;-67
2023/03/15 04:49:18;;;;;;;;;4.75;4.50;;;;;8.38;57.11;101254.97;5013830;28;46227;-69
2023/03/15 04:51:44;;;;;;;;;5.25;2.00;;;;;8.33;57.89;101258.25;5014432;28;45393;-70
2023/03/15 04:54:09;;;;;;;;;4.00;2.50;;;;;8.30;57.16;101267.91;5017667;28;45779;-70
2023/03/15 04:56:36;;;;;;;;;2.75;2.75;;;;;8.32;57.27;101262.66;5012277;28;45507;-69
2023/03/15 04:59:01;;;;;;;;;6.25;3.25;;;;;8.24;57.70;101246.34;5016495;28;46899;-69
2023/03/15 05:01:29;;;;;;;;;1.00;1.00;;;;;8.28;57.20;101248.31;5013461;28;45464;-69
2023/03/15 05:03:56;;;;;;;;;3.75;2.50;;;;;8.36;58.17;101263.69;5017805;28;45684;-68
2023/03/15 05:06:21;;;;;;;;;4.25;3.00;;;;;8.29;57.57;101252.78;5014499;28;45611;-68
2023/03/15 05:08:47;;;;;;;;;6.00;3.00;;;;;8.40;57.36;101276.31;5016938;28;45335;-68
2023/03/15 05:11:12;;;;;;;;;8.75;4.75;;;;;8.35;57.76;101273.47;5013964;28;45534;-68
2023/03/15 05:13:37;;;;;;;;;3.25;3.25;;;;;8.41;57.90;101286.09;5016207;28;45428;-68
2023/03/15 05:16:03;;;;;;;;;6.50;4.00;;;;;8.43;57.61;101288.03;5000520;28;45722;-68
2023/03/15 05:18:29;;;;;;;;;5.00;3.00;;;;;8.47;57.84;101295.31;5018939;28;45657;-68
2023/03/15 05:20:55;;;;;;;;;4.00;2.50;;;;;8.47;57.35;101284.66;5014088;28;45670;-67
2023/03/15 05:23:22;;;;;;;;;5.75;3.25;;;;;8.42;57.14;101279.94;5017170;28;45341;-67
2023/03/15 05:25:54;;;;;;;;;4.25;3.00;;;;;8.40;57.10;101277.22;5015826;28;45385;-68
2023/03/15 05:28:22;;;;;;;;;2.00;2.00;;;;;8.35;57.72;101284.09;5014670;28;46758;-67
2023/03/15 05:30:48;;;;;;;;;3.75;2.50;;;;;8.21;58.03;101258.63;5018095;28;45529;-69
2023/03/15 05:33:13;;;;;;;;;1.50;1.50;;;;;8.32;58.56;101272.41;5013868;28;45533;-69
2023/03/15 05:35:39;;;;;;;;;3.50;2.00;;;;;8.31;57.92;101274.16;4995953;28;45704;-70
2023/03/15 05:38:04;;;;;;;;;1.00;1.00;;;;;8.30;58.30;101283.91;5010655;28;46343;-69
2023/03/15 05:40:31;;;;;;;;;2.00;2.00;;;;;8.34;57.70;101286.69;5019114;28;45410;-69
2023/03/15 05:42:57;;;;;;;;;5.75;1.50;;;;;8.32;58.60;101289.28;4993195;28;45360;-68
2023/03/15 05:45:22;;;;;;;;;3.50;1.50;;;;;8.37;57.63;101290.41;5009844;28;45685;-68
2023/03/15 05:47:48;;;;;;;;;3.50;3.00;;;;;8.30;58.53;101286.56;5019189;28;46505;-68
2023/03/15 05:50:13;;;;;;;;;5.25;2.50;;;;;8.32;57.85;101296.38;5019793;28;45526;-69
2023/03/15 05:52:39;;;;;;;;;3.00;3.00;;;;;8.34;57.94;101303.56;5012668;28;46986;-68
2023/03/15 05:55:04;;;;;;;;;3.00;3.00;;;;;8.39;58.20;101294.03;5012613;28;45401;-70
2023/03/15 05:57:30;;;;;;;;;3.00;2.50;;;;;8.41;58.28;101296.75;5017827;28;46498;-70
2023/03/15 05:59:55;;;;;;;;;2.00;2.00;;;;;8.39;58.03;101290.47;5012795;28;45657;-69
2023/03/15 06:02:22;;;;;;;;;5.00;3.00;;;;;8.37;58.69;101297.50;5009197;28;45550;-69
2023/03/15 06:04:47;;;;;;;;;2.00;2.00;;;;;8.38;59.04;101310.88;5014643;28;45458;-68
2023/03/15 06:07:13;;;;;;;;;4.00;2.00;;;;;8.37;59.41;101298.38;5014613;28;45736;-68
2023/03/15 06:09:38;;;;;;;;;11.00;4.00;;;;;8.39;59.23;101299.34;5011202;28;45450;-70
2023/03/15 06:12:04;;;;;;;;;3.25;3.25;;;;;8.44;58.64;101305.81;5014862;28;45428;-68
2023/03/15 06:14:29;;;;;;;;;4.00;4.00;;;;;8.45;59.85;101305.00;5014231;28;45566;-69
2023/03/15 06:16:55;;;;;;;;;6.50;4.00;;;;;8.42;58.50;101304.81;5009422;28;46150;-67
2023/03/15 06:19:21;;;;;;;;;11.50;10.00;;;;;8.48;58.70;101306.91;5004916;28;45465;-68
2023/03/15 06:21:47;;;;;;;;;2.50;2.00;;;;;8.52;57.93;101306.16;5012527;28;45678;-67
2023/03/15 06:24:13;;;;;;;;;3.00;3.00;;;;;8.55;59.14;101306.31;5018282;28;45539;-67
2023/03/15 06:26:39;;;;;;;;;4.00;3.00;;;;;8.54;58.01;101306.25;5012581;28;46300;-69
2023/03/15 06:29:04;;;;;;;;;3.75;2.25;;;;;8.55;58.59;101318.72;5015919;28;45505;-71
2023/03/15 06:31:30;;;;;;;;;11.50;6.00;;;;;8.56;58.30;101318.75;5013591;28;45707;-68
2023/03/15 06:33:55;;;;;;;;;4.25;4.00;;;;;8.50;58.17;101310.53;5001421;28;45674;-67
2023/03/15 06:36:21;;;;;;;;;9.75;6.00;;;;;8.47;58.51;101305.06;5014757;28;46268;-69
2023/03/15 06:38:46;;;;;;;;;3.25;3.25;;;;;8.53;58.40;101321.31;5013533;28;45933;-69
2023/03/15 06:41:14;;;;;;;;;12.25;8.50;;;;;8.52;58.62;101326.56;5021281;28;45403;-67
2023/03/15 06:43:39;;;;;;;;;5.50;4.25;;;;;8.40;58.41;101311.84;5013973;28;46004;-67
2023/03/15 06:46:04;;;;;;;;;4.00;4.00;;;;;8.54;59.00;101330.22;5025226;28;45430;-69
2023/03/15 06:48:30;;;;;;;;;4.00;2.25;;;;;8.57;58.46;101333.00;5016185;28;45504;-67
2023/03/15 06:50:56;;;;;;;;;11.00;5.50;;;;;8.59;58.46;101331.31;5021752;28;45495;-68
2023/03/15 06:53:21;;;;;;;;;6.00;3.75;;;;;8.61;58.87;101327.88;5012635;28;45530;-68
2023/03/15 06:55:47;;;;;;;;;5.25;5.00;;;;;8.62;58.54;101327.03;5010230;28;46453;-69
2023/03/15 06:58:13;;;;;;;;;4.50;4.00;;;;;8.64;58.31;101333.31;4998609;28;45606;-69
2023/03/15 07:00:38;;;;;;;;;5.00;5.00;;;;;8.63;58.61;101327.97;5016073;28;46249;-67
2023/03/15 07:03:04;;;;;;;;;5.00;5.00;;;;;8.62;58.22;101332.34;5017311;28;45451;-70
2023/03/15 07:05:30;;;;;;;;;10.75;5.25;;;;;8.62;58.41;101320.78;5018415;28;46260;-68
2023/03/15 07:07:56;;;;;;;;;4.75;3.75;;;;;8.53;58.48;101305.34;5012762;28;45622;-66
2023/03/15 07:10:21;;;;;;;;;3.50;3.00;;;;;8.66;58.27;101334.31;5013451;28;45619;-67
2023/03/15 07:12:47;;;;;;;;;4.00;4.00;;;;;8.63;58.75;101322.63;5014209;28;45592;-68
2023/03/15 07:15:12;;;;;;;;;4.00;3.25;;;;;8.65;58.02;101337.81;5014389;28;45549;-68
2023/03/15 07:17:38;;;;;;;;;8.25;4.25;;;;;8.66;59.14;101350.31;5026519;28;45107;-68
2023/03/15 07:20:05;;;;;;;;;4.50;3.50;;;;;8.67;58.35;101346.78;5029383;28;45354;-67
2023/03/15 07:22:34;;;;;;;;;8.75;5.00;;;;;8.70;57.94;101339.78;5017250;28;45550;-68
2023/03/15 07:24:59;;;;;;;;;4.50;3.50;;;;;8.74;58.26;101347.06;5019271;28;46244;-69
2023/03/15 07:27:25;;;;;;;;;5.50;4.00;;;;;8.79;58.24;101345.50;4997003;28;45605;-67
2023/03/15 07:29:50;;;;;;;;;5.25;5.25;;;;;8.45;57.98;101298.78;5014226;28;45540;-69
2023/03/15 07:32:16;;;;;;;;;12.50;10.25;;;;;8.77;57.86;101352.53;5013360;28;45577;-67
2023/03/15 07:34:41;;;;;;;;;9.00;5.75;;;;;8.87;57.38;101360.06;4991361;28;46129;-69
2023/03/15 07:37:07;;;;;;;;;16.00;9.75;;;;;8.88;57.37;101366.31;5015169;28;45569;-68
2023/03/15 07:39:32;;;;;;;;;5.00;5.00;;;;;8.84;57.77;101357.25;5017656;28;45470;-70
2023/03/15 07:41:59;;;;;;;;;7.00;5.00;;;;;8.90;57.88;101367.28;5011883;28;45535;-70
2023/03/15 07:44:25;;;;;;;;;5.00;3.75;;;;;8.92;58.21;101366.50;5013247;28;45498;-69
2023/03/15 07:46:50;;;;;;;;;4.00;3.25;;;;;8.70;57.66;101327.38;5018657;28;45399;-69
2023/03/15 07:49:15;;;;;;;;;10.50;5.00;;;;;8.88;58.21;101342.34;5020583;28;45554;-67
2023/03/15 07:51:41;;;;;;;;;6.25;5.25;;;;;8.99;57.66;101363.25;5015641;28;45531;-70
2023/03/15 07:54:07;;;;;;;;;5.50;4.75;;;;;9.14;56.55;101378.06;4991470;28;47671;-69
2023/03/15 07:56:32;;;;;;;;;7.25;5.25;;;;;9.03;57.28;101362.53;5008989;28;45471;-66
2023/03/15 07:58:58;;;;;;;;;5.50;4.25;;;;;9.19;56.77;101384.53;5008954;28;45958;-67
2023/03/15 08:01:23;;;;;;;;;6.75;5.00;;;;;9.19;57.41;101371.19;4997204;28;45541;-67
2023/03/15 08:03:48;;;;;;;;;4.75;4.00;;;;;9.32;56.89;101389.53;5023058;28;45530;-66
2023/03/15 08:06:15;;;;;;;;;15.00;13.00;;;;;9.38;57.39;101396.84;5027818;28;45039;-69
2023/03/15 08:08:40;;;;;;;;;5.25;5.00;;;;;9.14;56.08;101338.06;5006973;28;48280;-70
2023/03/15 08:11:06;;;;;;;;;5.50;4.25;;;;;9.33;56.73;101371.75;5007146;28;45843;-68
2023/03/15 08:13:31;;;;;;;;;9.75;5.75;;;;;9.48;56.53;101398.16;5012364;28;45576;-69
2023/03/15 08:15:57;;;;;;;;;8.00;6.00;;;;;9.48;56.54;101400.81;5007552;28;45400;-67
2023/03/15 08:18:22;;;;;;;;;7.25;7.25;;;;;9.58;56.53;101411.91;4993263;28;45407;-68
2023/03/15 08:20:48;;;;;;;;;7.00;6.50;;;;;9.56;56.42;101396.72;5010318;28;45548;-67
2023/03/15 08:23:15;;;;;;;;;5.75;5.50;;;;;9.71;56.08;101400.00;5010525;28;45535;-68
2023/03/15 08:25:42;;;;;;;;;6.75;5.00;;;;;9.80;55.87;101402.13;5013712;28;45677;-66
2023/03/15 08:28:08;;;;;;;;;22.75;19.75;;;;;9.78;55.96;101385.13;5014223;28;45421;-66
2023/03/15 08:30:33;;;;;;;;;8.50;7.00;;;;;10.01;55.91;101418.06;5008522;28;46839;-68
2023/03/15 08:32:59;;;;;;;;;7.00;4.00;;;;;10.11;55.53;101414.00;5017200;28;46704;-67
2023/03/15 08:35:24;;;;;;;;;3.00;2.00;;;;;10.15;54.96;101418.63;5008964;28;45571;-67
2023/03/15 08:37:51;;;;;;;;;5.00;5.00;;;;;10.32;55.00;101419.31;5003762;28;45467;-68
2023/03/15 08:40:24;;;;;;;;;5.00;5.00;;;;;10.18;54.21;101402.72;5004470;28;45665;-68
2023/03/15 08:42:51;;;;;;;;;5.75;4.00;;;;;10.19;53.94;101409.88;5007138;28;45936;-66
2023/03/15 08:45:17;;;;;;;;;2.75;2.75;;;;;10.27;54.36;101424.44;5012382;28;45506;-68
2023/03/15 08:47:42;;;;;;;;;4.75;4.00;;;;;10.18;54.56;101418.75;5009071;28;45997;-68
2023/03/15 08:50:12;;;;;;;;;16.00;13.00;;;;;10.32;54.71;101411.28;5012517;28;45400;-65
2023/03/15 08:52:38;;;;;;;;;12.50;8.75;;;;;10.41;54.61;101421.41;5014338;28;47569;-69
2023/03/15 08:55:04;;;;;;;;;7.25;7.25;;;;;10.51;53.94;101420.94;5018193;28;45552;-65
2023/03/15 08:57:32;;;;;;;;;7.25;6.00;;;;;10.61;53.91;101423.06;5014461;28;45356;-67
2023/03/15 09:00:00;;;;;;;;;5.00;4.75;;;;;10.72;53.96;101425.22;5012332;28;45500;-67
2023/03/15 09:02:27;;;;;;;;;6.75;5.50;;;;;10.78;53.11;101420.13;5017542;28;45438;-68
2023/03/15 09:04:53;;;;;;;;;4.25;3.50;;;;;10.90;53.09;101431.22;5014203;28;45466;-67
2023/03/15 09:07:19;;;;;;;;;5.50;4.50;;;;;10.95;52.77;101434.06;5014078;28;45348;-67
2023/03/15 09:09:47;;;;;;;;;5.50;2.50;;;;;10.98;52.91;101440.44;5023122;28;45456;-66
2023/03/15 09:12:16;;;;;;;;;1.25;1.00;;;;;11.00;52.69;101445.84;5014664;28;46923;-67
2023/03/15 09:14:41;;;;;;;;;5.75;5.75;;;;;11.01;52.51;101435.19;5000040;28;46122;-67
2023/03/15 09:17:07;;;;;;;;;4.50;3.50;;;;;11.10;52.48;101444.41;5014238;28;45304;-68
2023/03/15 09:19:32;;;;;;;;;3.25;3.00;;;;;11.21;52.72;101445.69;5014442;28;45425;-66
2023/03/15 09:21:57;;;;;;;;;3.50;3.50;;;;;11.23;52.08;101443.97;5016151;28;46463;-68
2023/03/15 09:24:23;;;;;;;;;4.75;3.00;;;;;11.10;52.05;101428.38;5012064;28;45450;-67
2023/03/15 09:26:48;;;;;;;;;5.00;5.00;;;;;11.09;52.24;101418.50;4994827;28;45510;-68
2023/03/15 09:29:13;;;;;;;;;5.75;4.00;;;;;11.11;52.63;101441.78;5014589;28;45420;-68
2023/03/15 09:31:39;;;;;;;;;7.25;5.75;;;;;11.06;52.36;101438.06;4994966;28;48210;-67
2023/03/15 09:34:05;;;;;;;;;4.50;3.00;;;;;11.02;52.32;101444.13;5014291;28;45294;-65
2023/03/15 09:36:31;;;;;;;;;3.00;2.00;;;;;10.98;52.84;101445.78;5014195;28;45379;-67
2023/03/15 09:38:57;;;;;;;;;4.75;3.00;;;;;10.82;53.14;101416.69;5008572;28;45532;-69
2023/03/15 09:41:41;;;;;;;;;3.50;2.00;;;;;10.83;53.58;101431.88;5010562;28;46896;-66
2023/03/15 09:44:16;;;;;;;;;4.00;2.00;;;;;10.92;53.18;101442.88;5011632;28;45440;-68
2023/03/15 09:47:09;;;;;;;;;5.50;4.50;;;;;10.97;52.89;101446.66;5007379;28;45501;-67
2023/03/15 09:50:11;;;;;;;;;2.75;2.00;;;;;11.05;52.88;101445.16;5008482;28;45443;-68
2023/03/15 09:52:43;;;;;;;;;3.00;3.00;;;;;11.14;52.90;101444.56;5018866;28;46317;-66
2023/03/15 09:55:18;;;;;;;;;6.50;4.00;;;;;11.35;52.25;101433.72;5006917;28;45541;-68
2023/03/15 09:58:00;;;;;;;;;6.50;5.75;;;;;11.65;51.93;101435.59;5014005;28;45763;-67
2023/03/15 10:00:36;;;;;;;;;3.25;3.25;;;;;11.79;51.26;101430.69;5010318;28;46015;-68
2023/03/15 10:03:05;;;;;;;;;5.75;5.75;;;;;11.88;50.45;101435.41;5015189;28;45532;-68
2023/03/15 10:05:44;;;;;;;;;5.50;3.25;;;;;11.93;50.98;101432.09;5012853;28;45447;-66
2023/03/15 10:08:16;;;;;;;;;3.50;3.00;;;;;11.85;50.42;101435.34;5034149;28;45406;-66
2023/03/15 10:11:05;;;;;;;;;4.67;2.00;;;;;11.84;50.87;101447.81;5026953;28;45559;-68
2023/03/15 10:13:30;;;;;;;;;2.50;2.25;;;;;11.83;50.97;101437.03;5031306;28;46448;-68
2023/03/15 10:16:14;;;;;;;;;4.00;2.75;;;;;11.83;50.55;101429.94;5003116;28;45547;-67
2023/03/15 10:19:02;;;;;;;;;2.00;2.00;;;;;11.78;50.90;101440.50;5025278;28;45344;-68
2023/03/15 10:21:40;;;;;;;;;19.50;15.00;;;;;11.88;50.48;101435.41;5023422;28;45383;-68
2023/03/15 10:24:16;;;;;;;;;2.50;2.50;;;;;11.96;50.13;101429.50;5031073;28;45565;-67
2023/03/15 10:26:43;;;;;;;;;6.50;4.00;;;;;12.01;49.99;101420.69;5033950;28;45546;-65
2023/03/15 10:29:15;;;;;;;;;3.33;2.00;;;;;12.29;49.87;101426.06;5027358;28;45157;-67
2023/03/15 10:31:45;;;;;;;;;2.00;2.00;;;;;12.46;48.98;101423.88;5033128;28;45185;-68
2023/03/15 10:34:11;;;;;;;;;5.67;3.00;;;;;12.43;48.65;101414.84;5034478;28;45524;-69
2023/03/15 10:36:44;;;;;;;;;9.25;6.25;;;;;12.32;48.24;101399.34;5040345;28;45175;-68
2023/03/15 10:39:11;;;;;;;;;3.25;3.25;;;;;12.41;48.52;101421.94;5024604;28;45366;-69
2023/03/15 10:41:46;;;;;;;;;1.00;1.00;;;;;12.37;49.17;101391.44;5021702;28;45574;-67
2023/03/15 10:44:23;;;;;;;;;38.75;33.50;;;;;12.53;48.29;101409.78;5017113;28;45675;-68
2023/03/15 10:47:11;;;;;;;;;19.25;13.25;;;;;12.59;48.57;101406.38;4998798;28;46107;-68
2023/03/15 10:49:39;;;;;;;;;10.75;9.75;;;;;12.66;48.64;101411.03;5023022;28;45405;-67
2023/03/15 10:52:23;;;;;;;;;6.75;3.00;;;;;12.67;47.85;101410.19;5018541;28;45459;-65
2023/03/15 10:54:51;;;;;;;;;18.50;14.25;;;;;12.46;48.08;101353.28;5028903;28;46328;-69
2023/03/15 10:57:20;;;;;;;;;7.00;2.33;;;;;12.79;47.97;101408.72;5024574;28;45588;-69
2023/03/15 11:00:19;;;;;;;;;7.75;6.50;;;;;12.79;47.36;101398.88;5022298;28;45517;-68
2023/03/15 11:02:59;;;;;;;;;3.33;2.33;;;;;12.89;47.55;101409.00;5018141;28;45415;-67
2023/03/15 11:05:30;;;;;;;;;5.00;3.00;;;;;12.97;46.36;101392.19;5019150;28;46654;-69
2023/03/15 11:08:00;;;;;;;;;39.50;33.25;;;;;13.07;47.06;101392.50;5016785;28;45484;-67
2023/03/15 11:10:28;;;;;;;;;6.75;5.50;;;;;13.20;45.87;101401.78;5017291;28;47001;-68
2023/03/15 11:13:12;;;;;;;;;12.00;10.25;;;;;13.25;45.60;101408.16;5014466;28;45578;-68
2023/03/15 11:15:45;;;;;;;;;5.00;5.00;;;;;13.28;44.70;101402.88;5019148;28;46476;-69
2023/03/15 11:18:23;;;;;;;;;2.33;2.33;;;;;13.20;44.82;101393.72;5010783;28;45523;-69
2023/03/15 11:20:53;;;;;;;;;28.25;26.25;;;;;13.35;45.41;101405.78;5032225;28;45561;-68
2023/03/15 11:23:28;;;;;;;;;4.33;3.00;;;;;13.43;44.86;101404.19;5028031;28;46348;-68
2023/03/15 11:25:55;;;;;;;;;8.00;7.00;;;;;13.21;44.39;101363.31;5026245;28;45357;-68
2023/03/15 11:28:25;;;;;;;;;6.75;6.00;;;;;13.30;44.14;101370.72;5026771;28;45270;-68
2023/03/15 11:30:51;;;;;;;;;3.00;3.00;;;;;13.44;42.81;101398.81;5031616;28;45139;-70
2023/03/15 11:33:47;;;;;;;;;4.00;4.00;;;;;13.47;41.20;101397.13;5016404;28;45189;-69